Big Trout Lake Airport
CYTL : now visible

Airfield :











YOU CAN JOIN US ON...

 
LOGIN :

Register | Disclaimer

   EN    FR    IT 

 









Legend :    VFR   Marginal VFR   IFR   Intensive IFR   Very Intensive IFR
Visi :
Ceiling :
>= 8 km
>= 3000ft
5 to 8 km
1000 to 3000 ft
1500m to 5 km
500 to 1000 ft
800 to 1500m
200 to 500 ft
< 800m
< 200 ft
Symbols :   Thunderstorms  Fog  Heavy snow  Heavy precipitations  Wind > 20 kt






- Airport Elevation : 729 ft
- IATA code : YTL


CYTL - Big Trout Lake

CURRENT METAR :
  • 040315Z AUTO 23005KT 3SM BR CLR 22/20 A2994 RMK SLP141 DENSITY ALT 1700FT

EXPIRED METARs :
  • 040256Z AUTO 27004KT 2SM HZ CLR 22/19 A2992 RMK SLP138 DENSITY ALT 1600FT
  • 040233Z AUTO 28004KT 4SM HZ CLR 23/19 A2992 RMK SLP135 DENSITY ALT 1800FT
  • 040207Z AUTO 28002KT 2SM HZ CLR 24/20 A2991 RMK LTNG DIST E SLP132 DENSITY ALT 1900FT
  • 040157Z AUTO 30003KT 3SM HZ CLR 25/21 A2991 RMK SLP133 DENSITY ALT 2000FT
  • 040142Z AUTO VRB02KT 1 3/4SM HZ FEW070 26/19 A2990 RMK LTNG DIST E SE SLP130 DENSITY ALT 2100FT
  • 040141Z AUTO VRB02KT 2 1/4SM HZ FEW070 26/20 A2990 RMK LTNG DIST E SE SLP130 DENSITY ALT 2100FT
  • 040100Z AUTO 32004KT 8SM BKN065 BKN077 BKN140 26/20 A2990 RMK SLP130 DENSITY ALT 2100FT
  • 040033Z AUTO 29005KT 8SM BKN140 BKN160 26/20 A2991 RMK PRESRR SLP134 DENSITY ALT 2100FT
  • 040027Z AUTO 31004KT 290V360 1 1/4SM HZ SCT140 SCT160 26/21 A2991 RMK SLP132 DENSITY ALT 2100FT
  • 040017Z AUTO 35002KT 1SM HZ CLR 26/21 A2990 RMK PRESFR SLP129 DENSITY ALT 2200FT

TAF TAF CYTL
Valid from the 04 at 02:00 until the 04 at 14:00 UTC


040139Z 0402/0414 VRB03KT P6SM BKN060
FM040400 VRB03KT P6SM FEW060
PROB30 0407/0413 1/2SM FG BKN002 RMK FCST BASED ON AUTO OBS. AUTO OBS REP NON-REPRESENTATIVE VIS. NXT FCST BY 040800Z
CZWG FIR / North America



MET'MAP, your aeronautical weather chart ! - Copyright ORBIFLY December 2007 - Disclaimer

ORBIFLY MET'MAP TEAM :

Programming & Development : Alexandra Zaïnal
Concept & original design : Baudouin d'Aumeries
Assistance for programming : Marc-Olivier Méhu
Technical & hardware support : Manuel Goepfert

Contact : metmap@orbifly.com




SOURCES & CREDITS :

   NOAA       Earth
Advisory